createdAt,value
2023-03-26T00:02:07.613Z,19608.56
2023-03-26T00:04:35.775Z,19626.88
2023-03-26T00:07:05.106Z,19594.34
2023-03-26T00:09:33.201Z,19578.09
2023-03-26T00:12:01.295Z,19643.13
2023-03-26T00:14:30.348Z,19578.09
2023-03-26T00:16:59.868Z,19578.09
2023-03-26T00:19:30.172Z,19596.38
2023-03-26T00:21:58.304Z,19565.91
2023-03-26T00:24:29.495Z,19600.44
2023-03-26T00:26:59.604Z,19561.84
2023-03-26T00:29:28.721Z,19569.97
2023-03-26T00:31:56.914Z,19578.09
2023-03-26T00:34:26.911Z,19557.78
2023-03-26T00:36:55.094Z,19565.91
2023-03-26T00:39:24.414Z,19606.53
2023-03-26T00:41:54.565Z,19569.97
2023-03-26T00:44:23.289Z,19523.22
2023-03-26T00:46:51.502Z,19561.84
2023-03-26T00:49:19.661Z,19588.25
2023-03-26T00:51:49.239Z,19576.06
2023-03-26T00:54:17.415Z,19523.22
2023-03-26T00:56:45.617Z,19545.56
2023-03-26T00:59:13.821Z,19569.97
2023-03-26T01:01:42.183Z,19521.19
2023-03-26T01:04:31.282Z,19543.53
2023-03-26T01:07:05.765Z,19519.16
2023-03-26T01:09:42.761Z,19541.50
2023-03-26T01:12:17.079Z,19527.28
2023-03-26T01:14:47.012Z,19537.44
2023-03-26T01:17:16.746Z,19541.50
2023-03-26T01:19:54.401Z,19545.56
2023-03-26T01:22:26.608Z,19521.19
2023-03-26T01:24:56.615Z,19551.69
2023-03-26T01:27:38.842Z,19539.47
2023-03-26T01:30:18.782Z,19529.31
2023-03-26T01:33:02.415Z,19529.31
2023-03-26T01:35:42.688Z,19504.94
2023-03-26T01:38:25.605Z,19533.38
2023-03-26T01:41:05.655Z,19549.63
2023-03-26T01:43:44.636Z,19515.09
2023-03-26T01:46:17.042Z,19525.25
2023-03-26T01:48:48.106Z,19509.00
2023-03-26T01:51:29.914Z,19517.13
2023-03-26T01:53:59.855Z,19529.31
2023-03-26T01:56:39.613Z,19525.25
2023-03-26T01:59:32.623Z,19500.88
2023-03-26T02:02:11.990Z,19529.31
2023-03-26T02:04:53.402Z,19547.59
2023-03-26T02:07:29.069Z,19496.81
2023-03-26T02:10:06.574Z,19531.34
2023-03-26T02:12:37.561Z,19492.75
2023-03-26T02:15:07.686Z,19506.97
2023-03-26T02:17:36.172Z,19484.59
2023-03-26T02:20:06.040Z,19527.28
2023-03-26T02:22:40.671Z,19492.75
2023-03-26T02:25:11.706Z,19482.56
2023-03-26T02:27:42.039Z,19476.47
2023-03-26T02:30:14.902Z,19484.59
2023-03-26T02:32:44.678Z,19448.03
2023-03-26T02:35:14.107Z,19502.91
2023-03-26T02:37:46.864Z,19437.88
2023-03-26T02:40:15.970Z,19474.44
2023-03-26T02:42:45.557Z,19441.94
2023-03-26T02:45:13.931Z,19472.41
2023-03-26T02:47:43.338Z,19448.03
2023-03-26T02:50:12.074Z,19433.81
2023-03-26T02:52:40.522Z,19425.69
2023-03-26T02:55:09.758Z,19472.41
2023-03-26T02:57:37.917Z,19448.03
2023-03-26T03:00:15.924Z,19462.25
2023-03-26T03:02:47.760Z,19460.22
2023-03-26T03:05:18.027Z,19456.16
2023-03-26T03:07:46.517Z,19450.06
2023-03-26T03:10:15.670Z,19446.00
2023-03-26T03:12:44.136Z,19446.00
2023-03-26T03:15:15.044Z,19464.28
2023-03-26T03:17:43.155Z,19448.03
2023-03-26T03:20:12.233Z,19448.03
2023-03-26T03:22:41.124Z,19435.84
2023-03-26T03:25:14.199Z,19435.84
2023-03-26T03:27:43.112Z,19429.75
2023-03-26T03:30:15.304Z,19448.03
2023-03-26T03:32:43.484Z,19443.97
2023-03-26T03:35:11.627Z,19429.75
2023-03-26T03:37:39.745Z,19464.28
2023-03-26T03:40:10.857Z,19478.50
2023-03-26T03:42:39.115Z,19443.97
2023-03-26T03:45:08.893Z,19448.03
2023-03-26T03:47:38.423Z,19488.69
2023-03-26T03:50:08.969Z,19486.66
2023-03-26T03:52:37.151Z,19458.19
2023-03-26T03:55:06.330Z,19464.28
2023-03-26T03:57:34.640Z,19456.16
2023-03-26T04:00:05.683Z,19486.66
2023-03-26T04:02:35.554Z,19474.44
2023-03-26T04:05:07.284Z,19448.03
2023-03-26T04:07:35.492Z,19466.31
2023-03-26T04:10:03.893Z,19409.41
2023-03-26T04:12:32.874Z,19399.25
2023-03-26T04:15:01.044Z,19435.84
2023-03-26T04:17:30.414Z,19427.72
2023-03-26T04:20:06.962Z,19411.44
2023-03-26T04:22:37.109Z,19431.78
2023-03-26T04:25:05.900Z,19437.88
2023-03-26T04:27:36.756Z,19437.88
2023-03-26T04:30:08.178Z,19448.03
2023-03-26T04:32:38.597Z,19417.56
2023-03-26T04:35:07.707Z,19415.50
2023-03-26T04:37:40.661Z,19443.97
2023-03-26T04:40:14.931Z,19419.59
2023-03-26T04:42:46.285Z,19419.59
2023-03-26T04:45:17.519Z,19427.72
2023-03-26T04:47:46.267Z,19411.44
2023-03-26T04:50:14.590Z,19393.16
2023-03-26T04:52:45.395Z,19376.91
2023-03-26T04:55:25.412Z,19370.81
2023-03-26T04:57:59.807Z,19364.72
2023-03-26T05:00:28.375Z,19399.25
2023-03-26T05:02:57.814Z,19407.38
2023-03-26T05:05:26.915Z,19435.84
2023-03-26T05:07:56.754Z,19474.44
2023-03-26T05:10:25.277Z,19452.09
2023-03-26T05:12:53.503Z,19464.28
2023-03-26T05:15:21.975Z,19486.66
2023-03-26T05:17:50.200Z,19492.75
2023-03-26T05:20:21.607Z,19500.88
2023-03-26T05:22:50.516Z,19474.44
2023-03-26T05:25:20.782Z,19478.50
2023-03-26T05:27:49.342Z,19521.19
2023-03-26T05:30:21.304Z,19543.53
2023-03-26T05:32:50.343Z,19513.06
2023-03-26T05:35:19.405Z,19496.81
2023-03-26T05:37:49.622Z,19533.38
2023-03-26T05:40:20.065Z,19586.22
2023-03-26T05:42:48.644Z,19504.94
2023-03-26T05:45:16.884Z,19555.75
2023-03-26T05:47:45.242Z,19574.03
2023-03-26T05:50:13.671Z,19537.44
2023-03-26T05:52:41.839Z,19594.34
2023-03-26T05:55:11.278Z,19569.97
2023-03-26T05:57:41.930Z,19557.78
2023-03-26T06:00:12.205Z,19565.91
2023-03-26T06:02:42.165Z,19539.47
2023-03-26T06:05:12.469Z,19561.84
2023-03-26T06:07:40.608Z,19569.97
2023-03-26T06:10:10.666Z,19565.91
2023-03-26T06:12:47.686Z,19549.63
2023-03-26T06:15:16.001Z,19561.84
2023-03-26T06:17:44.128Z,19592.31
2023-03-26T06:20:14.137Z,19594.34
2023-03-26T06:22:42.535Z,19590.28
2023-03-26T06:25:10.867Z,19578.09
2023-03-26T06:27:38.981Z,19590.28
2023-03-26T06:30:10.522Z,19622.81
2023-03-26T06:32:38.623Z,19604.50
2023-03-26T06:35:07.766Z,19608.56
2023-03-26T06:37:36.126Z,19608.56
2023-03-26T06:40:04.618Z,19608.56
2023-03-26T06:43:08.926Z,19632.97
2023-03-26T06:45:22.209Z,19649.22
2023-03-26T06:47:50.512Z,19681.75
2023-03-26T06:50:18.977Z,19698.00
2023-03-26T06:52:47.199Z,19628.91
2023-03-26T06:55:15.371Z,19651.25
2023-03-26T06:57:45.273Z,19675.63
2023-03-26T07:00:15.439Z,19710.19
2023-03-26T07:02:45.187Z,19708.16
2023-03-26T07:05:13.973Z,19720.34
2023-03-26T07:07:46.412Z,19724.41
2023-03-26T07:10:15.406Z,19730.50
2023-03-26T07:12:44.402Z,19693.94
2023-03-26T07:15:12.746Z,19752.88
2023-03-26T07:17:41.271Z,19791.47
2023-03-26T07:20:13.163Z,19756.94
2023-03-26T07:22:42.574Z,19752.88
2023-03-26T07:25:13.934Z,19750.84
2023-03-26T07:28:00.178Z,19771.16
2023-03-26T07:30:37.484Z,19797.59
2023-03-26T07:33:16.825Z,19832.13
2023-03-26T07:35:56.576Z,19793.50
2023-03-26T07:38:46.217Z,19801.66
2023-03-26T07:41:24.599Z,19826.03
2023-03-26T07:44:24.847Z,19850.41
2023-03-26T07:46:54.132Z,19848.38
2023-03-26T07:49:23.396Z,19882.94
2023-03-26T07:51:53.763Z,19903.25
2023-03-26T07:54:22.574Z,19903.25
2023-03-26T07:56:58.990Z,19903.25
2023-03-26T07:59:36.327Z,19956.09
2023-03-26T08:03:08.606Z,19968.31
2023-03-26T08:05:48.979Z,19960.16
2023-03-26T08:08:30.445Z,19911.41
2023-03-26T08:11:15.853Z,19956.09
2023-03-26T08:14:04.194Z,19937.81
2023-03-26T08:16:44.346Z,19962.19
2023-03-26T08:19:40.709Z,19960.16
2023-03-26T08:22:17.801Z,19966.28
2023-03-26T08:25:11.650Z,19958.13
2023-03-26T08:27:43.226Z,19939.84
2023-03-26T08:30:20.186Z,19976.44
2023-03-26T08:32:57.921Z,19958.13
2023-03-26T08:35:28.559Z,19998.78
2023-03-26T08:37:56.789Z,20019.13
2023-03-26T08:41:05.172Z,20029.28
2023-03-26T08:44:17.151Z,20047.56
2023-03-26T08:47:28.435Z,20078.06
2023-03-26T08:50:36.467Z,20110.56
2023-03-26T08:53:36.673Z,20088.22
2023-03-26T08:56:20.522Z,20069.94
2023-03-26T08:59:33.064Z,20057.72
2023-03-26T09:02:26.879Z,20074.00
2023-03-26T09:05:30.047Z,20061.78
2023-03-26T09:08:54.091Z,20130.91
2023-03-26T09:12:22.224Z,20090.25
2023-03-26T09:15:41.840Z,20155.28
2023-03-26T09:19:03.867Z,20173.59
2023-03-26T09:22:18.408Z,20155.28
2023-03-26T09:25:25.427Z,20122.78
2023-03-26T09:28:36.618Z,20090.25
2023-03-26T09:32:12.783Z,20143.09
2023-03-26T09:35:08.388Z,20206.09
2023-03-26T09:37:58.322Z,20265.03
2023-03-26T09:40:39.591Z,20200.00
2023-03-26T09:43:43.205Z,20191.88
2023-03-26T09:46:30.890Z,20200.00
2023-03-26T09:49:36.163Z,20212.19
2023-03-26T09:52:27.734Z,20216.25
2023-03-26T09:55:20.166Z,20216.25
2023-03-26T09:58:13.549Z,20202.03
2023-03-26T10:00:54.232Z,20220.34
2023-03-26T10:03:40.860Z,20202.03
2023-03-26T10:06:27.188Z,20252.84
2023-03-26T10:09:19.301Z,20309.75
2023-03-26T10:12:23.369Z,20441.88
2023-03-26T10:15:08.455Z,20462.22
2023-03-26T10:17:56.966Z,20458.16
2023-03-26T10:20:54.442Z,20462.22
2023-03-26T10:23:43.419Z,20472.38
2023-03-26T10:26:35.133Z,20435.78
2023-03-26T10:30:04.693Z,20425.63
2023-03-26T10:32:45.705Z,20419.53
2023-03-26T10:35:32.758Z,20437.81
2023-03-26T10:38:16.610Z,20399.19
2023-03-26T10:40:59.498Z,20324.00
2023-03-26T10:44:16.840Z,20281.31
2023-03-26T10:47:28.175Z,20319.94
2023-03-26T10:50:27.260Z,20317.91
2023-03-26T10:53:02.106Z,20350.41
2023-03-26T10:55:38.036Z,20403.25
2023-03-26T10:58:18.286Z,20384.97
2023-03-26T11:00:54.572Z,20450.03
2023-03-26T11:03:47.035Z,20458.16
2023-03-26T11:06:31.764Z,20486.59
2023-03-26T11:09:19.940Z,20521.16
2023-03-26T11:12:00.238Z,20492.72
2023-03-26T11:14:39.779Z,20571.97
2023-03-26T11:17:39.404Z,20517.09
2023-03-26T11:20:18.236Z,20592.31
2023-03-26T11:23:12.891Z,20431.72
2023-03-26T11:25:58.441Z,20454.09
2023-03-26T11:29:03.267Z,20397.16
2023-03-26T11:32:01.865Z,20315.88
2023-03-26T11:34:38.110Z,20307.72
2023-03-26T11:37:17.893Z,20277.25
2023-03-26T11:39:53.456Z,20326.03
2023-03-26T11:42:25.628Z,20350.41
2023-03-26T11:44:59.534Z,20319.94
2023-03-26T11:47:39.777Z,20273.19
2023-03-26T11:50:17.491Z,20258.94
2023-03-26T11:52:47.069Z,20269.13
2023-03-26T11:55:17.820Z,20228.47
2023-03-26T11:57:54.703Z,20200.00
2023-03-26T12:00:27.414Z,20179.69
2023-03-26T12:02:59.927Z,20185.78
2023-03-26T12:05:33.397Z,20067.88
2023-03-26T12:08:04.219Z,20027.25
2023-03-26T12:10:38.666Z,20055.69
2023-03-26T12:13:30.335Z,20017.09
2023-03-26T12:16:15.782Z,20025.22
2023-03-26T12:18:46.530Z,20061.78
2023-03-26T12:21:20.463Z,20084.16
2023-03-26T12:24:01.321Z,20155.28
2023-03-26T12:26:44.863Z,20147.16
2023-03-26T12:29:15.780Z,20204.06
2023-03-26T12:31:56.704Z,20260.97
2023-03-26T12:34:34.568Z,20299.59
2023-03-26T12:37:04.724Z,20295.53
2023-03-26T12:40:06.853Z,20267.09
2023-03-26T12:44:48.503Z,20169.53
2023-03-26T12:45:24.134Z,20080.09
2023-03-26T12:48:00.105Z,19992.69
2023-03-26T12:50:43.667Z,19984.56
2023-03-26T12:53:39.875Z,19927.66
2023-03-26T12:56:21.801Z,19878.88
2023-03-26T12:59:21.740Z,19862.63
2023-03-26T13:02:06.790Z,19899.19
2023-03-26T13:05:06.510Z,19943.91
2023-03-26T13:07:58.128Z,19980.50
2023-03-26T13:10:49.435Z,19998.78
2023-03-26T13:14:14.768Z,20100.41
2023-03-26T13:16:53.982Z,20088.22
2023-03-26T13:19:32.556Z,20177.66
2023-03-26T13:22:22.247Z,20189.84
2023-03-26T13:25:03.979Z,20208.13
2023-03-26T13:27:47.465Z,20187.81
2023-03-26T13:30:28.724Z,20151.22
2023-03-26T13:33:27.618Z,20078.06
2023-03-26T13:36:21.832Z,20069.94
2023-03-26T13:39:09.409Z,20027.25
2023-03-26T13:42:07.108Z,20004.88
2023-03-26T13:44:51.213Z,19964.25
2023-03-26T13:47:27.861Z,19925.63
2023-03-26T13:50:04.332Z,19976.44
2023-03-26T13:52:42.842Z,19992.69
2023-03-26T13:55:25.768Z,19980.50
2023-03-26T13:58:04.880Z,19964.25
2023-03-26T14:00:54.468Z,19960.16
2023-03-26T14:03:40.630Z,19901.22
2023-03-26T14:06:23.802Z,19917.50
2023-03-26T14:08:59.677Z,19935.78
2023-03-26T14:11:46.591Z,19937.81
2023-03-26T14:14:24.615Z,19891.06
2023-03-26T14:16:59.151Z,19927.66
2023-03-26T14:20:11.729Z,19915.47
2023-03-26T14:22:52.113Z,19915.47
2023-03-26T14:25:48.259Z,19850.41
2023-03-26T14:28:49.204Z,19909.34
2023-03-26T14:31:29.427Z,19925.63
2023-03-26T14:34:17.815Z,19868.72
2023-03-26T14:37:16.783Z,19866.69
2023-03-26T14:40:21.912Z,19846.34
2023-03-26T14:42:58.860Z,19866.69
2023-03-26T14:45:46.803Z,19777.25
2023-03-26T14:48:44.615Z,19805.72
2023-03-26T14:51:31.856Z,19777.25
2023-03-26T14:54:08.371Z,19761.00
2023-03-26T14:57:13.625Z,19738.66
2023-03-26T15:00:38.120Z,19693.94
2023-03-26T15:04:09.968Z,19708.16
2023-03-26T15:07:31.173Z,19643.13
2023-03-26T15:10:55.219Z,19651.25
2023-03-26T15:14:02.812Z,19673.59
2023-03-26T15:17:34.376Z,19632.97
2023-03-26T15:20:49.969Z,19632.97
2023-03-26T15:23:58.221Z,19657.34
2023-03-26T15:27:24.540Z,19614.66
2023-03-26T15:30:47.599Z,19610.59
2023-03-26T15:34:00.365Z,19602.47
2023-03-26T15:37:13.464Z,19590.28
2023-03-26T15:40:12.692Z,19582.16
2023-03-26T15:43:01.299Z,19586.22
2023-03-26T15:45:37.608Z,19565.91
2023-03-26T15:48:56.296Z,19574.03
2023-03-26T15:51:46.326Z,19602.47
2023-03-26T15:54:25.905Z,19578.09
2023-03-26T15:57:17.516Z,19588.25
2023-03-26T16:00:12.303Z,19598.41
2023-03-26T16:02:53.490Z,19596.38
2023-03-26T16:05:41.876Z,19590.28
2023-03-26T16:08:29.133Z,19569.97
2023-03-26T16:10:59.948Z,19586.22
2023-03-26T16:13:40.610Z,19574.03
2023-03-26T16:16:52.855Z,19565.91
2023-03-26T16:19:43.761Z,19521.19
2023-03-26T16:22:42.900Z,19569.97
2023-03-26T16:25:28.831Z,19551.69
2023-03-26T16:28:29.505Z,19549.63
2023-03-26T16:31:37.778Z,19541.50
2023-03-26T16:34:47.537Z,19551.69
2023-03-26T16:37:43.654Z,19541.50
2023-03-26T16:40:36.151Z,19521.19
2023-03-26T16:43:40.593Z,19511.03
2023-03-26T16:46:20.711Z,19496.81
2023-03-26T16:48:59.859Z,19460.22
2023-03-26T16:51:50.727Z,19494.78
2023-03-26T16:54:30.262Z,19502.91
2023-03-26T16:57:11.204Z,19484.59
2023-03-26T17:00:39.687Z,19492.75
2023-03-26T17:03:33.912Z,19490.72
2023-03-26T17:06:53.260Z,19484.59
2023-03-26T17:09:34.989Z,19509.00
2023-03-26T17:12:19.051Z,19472.41
2023-03-26T17:15:12.517Z,19521.19
2023-03-26T17:18:04.729Z,19460.22
2023-03-26T17:20:41.864Z,19527.28
2023-03-26T17:23:31.512Z,19478.50
2023-03-26T17:26:11.275Z,19454.13
2023-03-26T17:28:56.158Z,19456.16
2023-03-26T17:31:39.415Z,19452.09
2023-03-26T17:34:46.517Z,19448.03
2023-03-26T17:37:45.731Z,19431.78
2023-03-26T17:40:56.058Z,19446.00
2023-03-26T17:43:52.646Z,19458.19
2023-03-26T17:46:33.071Z,19488.69
2023-03-26T17:49:12.508Z,19433.81
2023-03-26T17:51:49.590Z,19476.47
2023-03-26T17:54:27.911Z,19435.84
2023-03-26T17:57:04.332Z,19441.94
2023-03-26T17:59:33.913Z,19439.91
2023-03-26T18:02:06.903Z,19431.78
2023-03-26T18:04:41.768Z,19423.66
2023-03-26T18:08:07.889Z,19433.81
2023-03-26T18:11:16.134Z,19391.13
2023-03-26T18:14:30.957Z,19385.03
2023-03-26T18:17:02.118Z,19366.75
2023-03-26T18:19:31.840Z,19376.91
2023-03-26T18:22:05.159Z,19368.78
2023-03-26T18:24:38.852Z,19380.97
2023-03-26T18:27:12.643Z,19348.47
2023-03-26T18:29:47.012Z,19391.13
2023-03-26T18:32:23.095Z,19395.19
2023-03-26T18:34:57.802Z,19413.47
2023-03-26T18:37:29.847Z,19391.13
2023-03-26T18:40:07.911Z,19380.97
2023-03-26T18:42:37.575Z,19366.75
2023-03-26T18:45:17.389Z,19387.06
2023-03-26T18:47:47.620Z,19383.00
2023-03-26T18:50:22.729Z,19374.88
2023-03-26T18:52:51.056Z,19413.47
2023-03-26T18:55:19.193Z,19393.16
2023-03-26T18:57:51.735Z,19370.81
2023-03-26T19:03:13.482Z,19366.75
2023-03-26T19:05:42.536Z,19368.78
2023-03-26T19:08:12.217Z,19391.13
2023-03-26T19:10:42.443Z,19366.75
2023-03-26T19:13:17.222Z,19387.06
2023-03-26T19:15:49.287Z,19391.13
2023-03-26T19:18:24.158Z,19383.00
2023-03-26T19:20:59.051Z,19358.63
2023-03-26T19:23:34.828Z,19370.81
2023-03-26T19:26:07.293Z,19374.88
2023-03-26T19:28:39.326Z,19376.91
2023-03-26T19:31:23.647Z,19305.78
2023-03-26T19:34:01.082Z,19350.50
2023-03-26T19:36:34.527Z,19370.81
2023-03-26T19:39:21.620Z,19348.47
2023-03-26T19:41:55.632Z,19360.66
2023-03-26T19:44:28.926Z,19393.16
2023-03-26T19:47:06.501Z,19387.06
2023-03-26T19:49:50.395Z,19376.91
2023-03-26T19:52:25.818Z,19326.09
2023-03-26T19:55:00.055Z,19322.03
2023-03-26T19:57:34.882Z,19409.41
2023-03-26T20:00:05.037Z,19364.72
2023-03-26T20:02:33.379Z,19399.25
2023-03-26T20:05:04.513Z,19391.13
2023-03-26T20:07:35.570Z,19364.72
2023-03-26T20:10:06.387Z,19383.00
2023-03-26T20:12:34.534Z,19397.22
2023-03-26T20:15:03.085Z,19387.06
2023-03-26T20:17:34.673Z,19368.78
2023-03-26T20:20:12.127Z,19380.97
2023-03-26T20:22:40.451Z,19352.53
2023-03-26T20:25:21.467Z,19358.63
2023-03-26T20:27:52.911Z,19360.66
2023-03-26T20:30:36.403Z,19374.88
2023-03-26T20:33:12.888Z,19334.22
2023-03-26T20:35:43.530Z,19374.88
2023-03-26T20:38:12.331Z,19358.63
2023-03-26T20:40:41.004Z,19366.75
2023-03-26T20:43:14.462Z,19380.97
2023-03-26T20:45:43.682Z,19334.22
2023-03-26T20:48:12.050Z,19348.47
2023-03-26T20:50:50.387Z,19342.34
2023-03-26T20:53:20.260Z,19342.34
2023-03-26T20:55:50.449Z,19389.09
2023-03-26T20:58:31.451Z,19413.47
2023-03-26T21:01:02.454Z,19358.63
2023-03-26T21:03:30.850Z,19342.34
2023-03-26T21:06:03.280Z,19366.75
2023-03-26T21:08:35.575Z,19350.50
2023-03-26T21:11:06.407Z,19326.09
2023-03-26T21:13:40.522Z,19374.88
2023-03-26T21:16:13.112Z,19338.28
2023-03-26T21:18:42.064Z,19362.69
2023-03-26T21:21:33.309Z,19348.47
2023-03-26T21:24:12.705Z,19334.22
2023-03-26T21:26:50.648Z,19354.56
2023-03-26T21:29:19.352Z,19366.75
2023-03-26T21:31:48.564Z,19338.28
2023-03-26T21:34:17.359Z,19336.25
2023-03-26T21:36:47.710Z,19336.25
2023-03-26T21:39:16.730Z,19344.41
2023-03-26T21:41:49.093Z,19350.50
2023-03-26T21:44:34.579Z,19344.41
2023-03-26T21:47:03.417Z,19342.34
2023-03-26T21:49:32.442Z,19370.81
2023-03-26T21:52:02.841Z,19344.41
2023-03-26T21:54:33.664Z,19330.16
2023-03-26T21:57:26.622Z,19346.44
2023-03-26T22:00:14.744Z,19370.81
2023-03-26T22:03:02.397Z,19334.22
2023-03-26T22:05:41.549Z,19328.13
2023-03-26T22:08:25.331Z,19305.78
2023-03-26T22:10:53.776Z,19338.28
2023-03-26T22:13:22.042Z,19320.00
2023-03-26T22:15:50.276Z,19293.59
2023-03-26T22:18:21.327Z,19313.91
2023-03-26T22:20:50.477Z,19311.88
2023-03-26T22:23:20.826Z,19309.84
2023-03-26T22:25:48.983Z,19342.34
2023-03-26T22:28:18.185Z,19334.22
2023-03-26T22:30:46.569Z,19334.22
2023-03-26T22:33:17.807Z,19315.94
2023-03-26T22:35:46.490Z,19313.91
2023-03-26T22:38:16.962Z,19328.13
2023-03-26T22:40:46.530Z,19315.94
2023-03-26T22:43:14.691Z,19305.78
2023-03-26T22:45:49.842Z,19291.56
2023-03-26T22:48:18.260Z,19269.22
2023-03-26T22:50:47.713Z,19279.38
2023-03-26T22:53:15.944Z,19273.28
2023-03-26T22:55:44.624Z,19303.75
2023-03-26T22:58:14.152Z,19313.91
2023-03-26T23:00:43.034Z,19285.47
2023-03-26T23:03:11.149Z,19295.63
2023-03-26T23:05:39.260Z,19285.47
2023-03-26T23:08:08.013Z,19287.50
2023-03-26T23:10:36.325Z,19244.81
2023-03-26T23:13:04.432Z,19285.47
2023-03-26T23:15:33.893Z,19265.13
2023-03-26T23:18:02.106Z,19261.06
2023-03-26T23:20:30.906Z,19228.56
2023-03-26T23:22:58.997Z,19259.03
2023-03-26T23:25:28.416Z,19230.59
2023-03-26T23:27:56.695Z,19238.72
2023-03-26T23:30:25.656Z,19212.31
2023-03-26T23:32:57.118Z,19226.53
2023-03-26T23:35:25.642Z,19230.59
2023-03-26T23:37:53.924Z,19275.31
2023-03-26T23:40:22.158Z,19198.09
2023-03-26T23:42:50.226Z,19230.59
2023-03-26T23:45:18.471Z,19175.72
2023-03-26T23:47:46.680Z,19206.22
2023-03-26T23:50:16.499Z,19198.09
2023-03-26T23:52:45.711Z,19202.16
2023-03-26T23:55:13.932Z,19236.69
2023-03-26T23:57:43.153Z,19208.25
